sensor_id;sensor_type;location;lat;lon;timestamp;temperature;humidity
60293;DHT22;52402;52.670;6.750;2023-12-20T00:01:41;5.10;99.90
60293;DHT22;52402;52.670;6.750;2023-12-20T00:04:07;5.20;99.90
60293;DHT22;52402;52.670;6.750;2023-12-20T00:06:32;5.20;99.90
60293;DHT22;52402;52.670;6.750;2023-12-20T00:08:58;5.20;99.90
60293;DHT22;52402;52.670;6.750;2023-12-20T00:11:24;5.20;99.90
60293;DHT22;52402;52.670;6.750;2023-12-20T00:13:50;5.20;99.90
60293;DHT22;52402;52.670;6.750;2023-12-20T00:16:15;5.20;99.90
60293;DHT22;52402;52.670;6.750;2023-12-20T00:18:41;5.20;99.90
60293;DHT22;52402;52.670;6.750;2023-12-20T00:21:06;5.20;99.90
60293;DHT22;52402;52.670;6.750;2023-12-20T00:23:32;5.30;99.90
60293;DHT22;52402;52.670;6.750;2023-12-20T00:25:58;5.30;99.90
60293;DHT22;52402;52.670;6.750;2023-12-20T00:28:23;5.30;99.90
60293;DHT22;52402;52.670;6.750;2023-12-20T00:30:49;5.40;99.90
60293;DHT22;52402;52.670;6.750;2023-12-20T00:33:14;5.40;99.90
60293;DHT22;52402;52.670;6.750;2023-12-20T00:35:40;5.30;99.90
60293;DHT22;52402;52.670;6.750;2023-12-20T00:38:05;5.30;99.90
60293;DHT22;52402;52.670;6.750;2023-12-20T00:40:32;5.20;99.90
60293;DHT22;52402;52.670;6.750;2023-12-20T00:42:58;5.20;99.90
60293;DHT22;52402;52.670;6.750;2023-12-20T00:45:24;5.10;99.90
60293;DHT22;52402;52.670;6.750;2023-12-20T00:47:49;5.10;99.90
60293;DHT22;52402;52.670;6.750;2023-12-20T00:50:16;5.00;99.90
60293;DHT22;52402;52.670;6.750;2023-12-20T00:52:41;5.00;99.90
60293;DHT22;52402;52.670;6.750;2023-12-20T00:55:07;5.00;99.90
60293;DHT22;52402;52.670;6.750;2023-12-20T00:57:33;5.00;99.90
60293;DHT22;52402;52.670;6.750;2023-12-20T00:59:59;4.90;99.90
60293;DHT22;52402;52.670;6.750;2023-12-20T01:02:25;5.00;99.90
60293;DHT22;52402;52.670;6.750;2023-12-20T01:04:50;4.90;99.90
60293;DHT22;52402;52.670;6.750;2023-12-20T01:07:16;4.90;99.90
60293;DHT22;52402;52.670;6.750;2023-12-20T01:09:41;4.90;99.90
60293;DHT22;52402;52.670;6.750;2023-12-20T01:12:07;4.90;99.90
60293;DHT22;52402;52.670;6.750;2023-12-20T01:14:33;4.90;99.90
60293;DHT22;52402;52.670;6.750;2023-12-20T01:16:58;4.80;99.90
60293;DHT22;52402;52.670;6.750;2023-12-20T01:19:24;4.80;99.90
60293;DHT22;52402;52.670;6.750;2023-12-20T01:21:50;4.80;99.90
60293;DHT22;52402;52.670;6.750;2023-12-20T01:24:16;4.90;99.90
60293;DHT22;52402;52.670;6.750;2023-12-20T01:26:41;4.90;99.90
60293;DHT22;52402;52.670;6.750;2023-12-20T01:29:07;4.90;99.90
60293;DHT22;52402;52.670;6.750;2023-12-20T01:31:36;4.90;99.90
60293;DHT22;52402;52.670;6.750;2023-12-20T01:34:01;5.00;99.90
60293;DHT22;52402;52.670;6.750;2023-12-20T01:36:28;5.00;99.90
60293;DHT22;52402;52.670;6.750;2023-12-20T01:38:53;5.00;99.90
60293;DHT22;52402;52.670;6.750;2023-12-20T01:41:19;5.10;99.90
60293;DHT22;52402;52.670;6.750;2023-12-20T01:43:44;5.10;99.90
60293;DHT22;52402;52.670;6.750;2023-12-20T01:46:10;5.10;99.90
60293;DHT22;52402;52.670;6.750;2023-12-20T01:48:37;5.10;99.90
60293;DHT22;52402;52.670;6.750;2023-12-20T01:51:04;5.10;99.90
60293;DHT22;52402;52.670;6.750;2023-12-20T01:53:30;5.20;99.90
60293;DHT22;52402;52.670;6.750;2023-12-20T01:55:58;5.20;99.90
60293;DHT22;52402;52.670;6.750;2023-12-20T01:58:25;5.20;99.90
60293;DHT22;52402;52.670;6.750;2023-12-20T02:00:51;5.20;99.90
60293;DHT22;52402;52.670;6.750;2023-12-20T02:03:18;5.20;99.90
60293;DHT22;52402;52.670;6.750;2023-12-20T02:05:44;5.20;99.90
60293;DHT22;52402;52.670;6.750;2023-12-20T02:08:10;5.20;99.90
60293;DHT22;52402;52.670;6.750;2023-12-20T02:10:36;5.20;99.90
60293;DHT22;52402;52.670;6.750;2023-12-20T02:13:03;5.20;99.90
60293;DHT22;52402;52.670;6.750;2023-12-20T02:15:29;5.10;99.90
60293;DHT22;52402;52.670;6.750;2023-12-20T02:17:55;5.10;99.90
60293;DHT22;52402;52.670;6.750;2023-12-20T02:20:21;5.10;99.90
60293;DHT22;52402;52.670;6.750;2023-12-20T02:22:46;5.10;99.90
60293;DHT22;52402;52.670;6.750;2023-12-20T02:25:12;5.10;99.90
60293;DHT22;52402;52.670;6.750;2023-12-20T02:27:38;5.20;99.90
60293;DHT22;52402;52.670;6.750;2023-12-20T02:30:06;5.20;99.90
60293;DHT22;52402;52.670;6.750;2023-12-20T02:32:32;5.30;99.90
60293;DHT22;52402;52.670;6.750;2023-12-20T02:34:57;5.30;99.90
60293;DHT22;52402;52.670;6.750;2023-12-20T02:37:23;5.30;99.90
60293;DHT22;52402;52.670;6.750;2023-12-20T02:39:49;5.30;99.90
60293;DHT22;52402;52.670;6.750;2023-12-20T02:42:14;5.40;99.90
60293;DHT22;52402;52.670;6.750;2023-12-20T02:44:40;5.40;99.90
60293;DHT22;52402;52.670;6.750;2023-12-20T02:47:06;5.50;99.90
60293;DHT22;52402;52.670;6.750;2023-12-20T02:49:31;5.50;99.90
60293;DHT22;52402;52.670;6.750;2023-12-20T02:51:57;5.50;99.90
60293;DHT22;52402;52.670;6.750;2023-12-20T02:54:22;5.50;99.90
60293;DHT22;52402;52.670;6.750;2023-12-20T02:56:48;5.50;99.90
60293;DHT22;52402;52.670;6.750;2023-12-20T02:59:14;5.60;99.90
60293;DHT22;52402;52.670;6.750;2023-12-20T03:01:44;5.60;99.90
60293;DHT22;52402;52.670;6.750;2023-12-20T03:04:10;5.60;99.90
60293;DHT22;52402;52.670;6.750;2023-12-20T03:06:36;5.60;99.90
60293;DHT22;52402;52.670;6.750;2023-12-20T03:09:01;5.70;99.90
60293;DHT22;52402;52.670;6.750;2023-12-20T03:11:27;5.70;99.90
60293;DHT22;52402;52.670;6.750;2023-12-20T03:13:54;5.80;99.90
60293;DHT22;52402;52.670;6.750;2023-12-20T03:16:19;5.80;99.90
60293;DHT22;52402;52.670;6.750;2023-12-20T03:18:45;5.80;99.90
60293;DHT22;52402;52.670;6.750;2023-12-20T03:21:10;5.80;99.90
60293;DHT22;52402;52.670;6.750;2023-12-20T03:23:36;5.80;99.90
60293;DHT22;52402;52.670;6.750;2023-12-20T03:26:02;5.70;99.90
60293;DHT22;52402;52.670;6.750;2023-12-20T03:28:27;5.70;99.90
60293;DHT22;52402;52.670;6.750;2023-12-20T03:30:53;5.70;99.90
60293;DHT22;52402;52.670;6.750;2023-12-20T03:33:19;5.70;99.90
60293;DHT22;52402;52.670;6.750;2023-12-20T03:35:44;5.70;99.90
60293;DHT22;52402;52.670;6.750;2023-12-20T03:38:10;5.70;99.90
60293;DHT22;52402;52.670;6.750;2023-12-20T03:40:36;5.70;99.90
60293;DHT22;52402;52.670;6.750;2023-12-20T03:43:01;5.70;99.90
60293;DHT22;52402;52.670;6.750;2023-12-20T03:45:27;5.70;99.90
60293;DHT22;52402;52.670;6.750;2023-12-20T03:47:53;5.70;99.90
60293;DHT22;52402;52.670;6.750;2023-12-20T03:50:25;5.70;99.90
60293;DHT22;52402;52.670;6.750;2023-12-20T03:52:51;5.70;99.90
60293;DHT22;52402;52.670;6.750;2023-12-20T03:55:17;5.70;99.90
60293;DHT22;52402;52.670;6.750;2023-12-20T03:57:43;5.70;99.90
60293;DHT22;52402;52.670;6.750;2023-12-20T04:00:09;5.60;99.90
60293;DHT22;52402;52.670;6.750;2023-12-20T04:02:39;5.70;99.90
60293;DHT22;52402;52.670;6.750;2023-12-20T04:05:06;5.70;99.90
60293;DHT22;52402;52.670;6.750;2023-12-20T04:07:32;5.70;99.90
60293;DHT22;52402;52.670;6.750;2023-12-20T04:09:57;5.70;99.90
60293;DHT22;52402;52.670;6.750;2023-12-20T04:12:23;5.70;99.90
60293;DHT22;52402;52.670;6.750;2023-12-20T04:14:48;5.70;99.90
60293;DHT22;52402;52.670;6.750;2023-12-20T04:17:15;5.60;99.90
60293;DHT22;52402;52.670;6.750;2023-12-20T04:19:42;5.60;99.90
60293;DHT22;52402;52.670;6.750;2023-12-20T04:22:07;5.60;99.90
60293;DHT22;52402;52.670;6.750;2023-12-20T04:24:33;5.60;99.90
60293;DHT22;52402;52.670;6.750;2023-12-20T04:26:58;5.70;99.90
60293;DHT22;52402;52.670;6.750;2023-12-20T04:29:24;5.70;99.90
60293;DHT22;52402;52.670;6.750;2023-12-20T04:31:50;5.70;99.90
60293;DHT22;52402;52.670;6.750;2023-12-20T04:34:17;5.70;99.90
60293;DHT22;52402;52.670;6.750;2023-12-20T04:36:43;5.70;99.90
60293;DHT22;52402;52.670;6.750;2023-12-20T04:39:09;5.70;99.90
60293;DHT22;52402;52.670;6.750;2023-12-20T04:41:35;5.70;99.90
60293;DHT22;52402;52.670;6.750;2023-12-20T04:44:01;5.80;99.90
60293;DHT22;52402;52.670;6.750;2023-12-20T04:46:26;5.80;99.90
60293;DHT22;52402;52.670;6.750;2023-12-20T04:48:52;5.90;99.90
60293;DHT22;52402;52.670;6.750;2023-12-20T04:51:18;5.90;99.90
60293;DHT22;52402;52.670;6.750;2023-12-20T04:53:43;5.90;99.90
60293;DHT22;52402;52.670;6.750;2023-12-20T04:56:09;5.90;99.90
60293;DHT22;52402;52.670;6.750;2023-12-20T04:58:35;6.00;99.90
60293;DHT22;52402;52.670;6.750;2023-12-20T05:01:00;6.00;99.90
60293;DHT22;52402;52.670;6.750;2023-12-20T05:03:26;6.00;99.90
60293;DHT22;52402;52.670;6.750;2023-12-20T05:05:51;6.00;99.90
60293;DHT22;52402;52.670;6.750;2023-12-20T05:08:17;6.10;99.90
60293;DHT22;52402;52.670;6.750;2023-12-20T05:10:43;6.10;99.90
60293;DHT22;52402;52.670;6.750;2023-12-20T05:13:09;6.10;99.90
60293;DHT22;52402;52.670;6.750;2023-12-20T05:15:34;6.20;99.90
60293;DHT22;52402;52.670;6.750;2023-12-20T05:18:00;6.20;99.90
60293;DHT22;52402;52.670;6.750;2023-12-20T05:20:25;6.20;99.90
60293;DHT22;52402;52.670;6.750;2023-12-20T05:22:51;6.20;99.90
60293;DHT22;52402;52.670;6.750;2023-12-20T05:25:17;6.30;99.90
60293;DHT22;52402;52.670;6.750;2023-12-20T05:27:42;6.30;99.90
60293;DHT22;52402;52.670;6.750;2023-12-20T05:30:08;6.30;99.90
60293;DHT22;52402;52.670;6.750;2023-12-20T05:32:34;6.30;99.90
60293;DHT22;52402;52.670;6.750;2023-12-20T05:34:59;6.30;99.90
60293;DHT22;52402;52.670;6.750;2023-12-20T05:37:25;6.30;99.90
60293;DHT22;52402;52.670;6.750;2023-12-20T05:39:51;6.30;99.90
60293;DHT22;52402;52.670;6.750;2023-12-20T05:42:16;6.30;99.90
60293;DHT22;52402;52.670;6.750;2023-12-20T05:44:42;6.30;99.90
60293;DHT22;52402;52.670;6.750;2023-12-20T05:47:07;6.30;99.90
60293;DHT22;52402;52.670;6.750;2023-12-20T05:49:33;6.40;99.90
60293;DHT22;52402;52.670;6.750;2023-12-20T05:51:58;6.40;99.90
60293;DHT22;52402;52.670;6.750;2023-12-20T05:54:24;6.40;99.90
60293;DHT22;52402;52.670;6.750;2023-12-20T05:56:50;6.40;99.90
60293;DHT22;52402;52.670;6.750;2023-12-20T05:59:16;6.50;99.90
60293;DHT22;52402;52.670;6.750;2023-12-20T06:01:41;6.50;99.90
60293;DHT22;52402;52.670;6.750;2023-12-20T06:04:07;6.50;99.90
60293;DHT22;52402;52.670;6.750;2023-12-20T06:06:32;6.50;99.90
60293;DHT22;52402;52.670;6.750;2023-12-20T06:08:58;6.50;99.90
60293;DHT22;52402;52.670;6.750;2023-12-20T06:11:24;6.50;99.90
60293;DHT22;52402;52.670;6.750;2023-12-20T06:13:49;6.50;99.90
60293;DHT22;52402;52.670;6.750;2023-12-20T06:16:18;6.50;99.90
60293;DHT22;52402;52.670;6.750;2023-12-20T06:18:44;6.50;99.90
60293;DHT22;52402;52.670;6.750;2023-12-20T06:21:09;6.50;99.90
60293;DHT22;52402;52.670;6.750;2023-12-20T06:23:38;6.60;99.90
60293;DHT22;52402;52.670;6.750;2023-12-20T06:26:04;6.60;99.90
60293;DHT22;52402;52.670;6.750;2023-12-20T06:28:29;6.60;99.90
60293;DHT22;52402;52.670;6.750;2023-12-20T06:30:55;6.60;99.90
60293;DHT22;52402;52.670;6.750;2023-12-20T06:33:22;6.60;99.90
60293;DHT22;52402;52.670;6.750;2023-12-20T06:35:48;6.70;99.90
60293;DHT22;52402;52.670;6.750;2023-12-20T06:38:14;6.60;99.90
60293;DHT22;52402;52.670;6.750;2023-12-20T06:40:39;6.60;99.90
60293;DHT22;52402;52.670;6.750;2023-12-20T06:43:05;6.60;99.90
60293;DHT22;52402;52.670;6.750;2023-12-20T06:45:32;6.70;99.90
60293;DHT22;52402;52.670;6.750;2023-12-20T06:47:58;6.70;99.90
60293;DHT22;52402;52.670;6.750;2023-12-20T06:50:24;6.70;99.90
60293;DHT22;52402;52.670;6.750;2023-12-20T06:52:49;6.70;99.90
60293;DHT22;52402;52.670;6.750;2023-12-20T06:55:15;6.70;99.90
60293;DHT22;52402;52.670;6.750;2023-12-20T06:57:41;6.70;99.90
60293;DHT22;52402;52.670;6.750;2023-12-20T07:00:07;6.70;99.90
60293;DHT22;52402;52.670;6.750;2023-12-20T07:02:34;6.70;99.90
60293;DHT22;52402;52.670;6.750;2023-12-20T07:04:59;6.70;99.90
60293;DHT22;52402;52.670;6.750;2023-12-20T07:07:25;6.70;99.90
60293;DHT22;52402;52.670;6.750;2023-12-20T07:09:51;6.70;99.90
60293;DHT22;52402;52.670;6.750;2023-12-20T07:12:17;6.70;99.90
60293;DHT22;52402;52.670;6.750;2023-12-20T07:14:45;6.80;99.90
60293;DHT22;52402;52.670;6.750;2023-12-20T07:17:11;6.80;99.90
60293;DHT22;52402;52.670;6.750;2023-12-20T07:19:39;6.80;99.90
60293;DHT22;52402;52.670;6.750;2023-12-20T07:22:05;6.80;99.90
60293;DHT22;52402;52.670;6.750;2023-12-20T07:24:31;6.80;99.90
60293;DHT22;52402;52.670;6.750;2023-12-20T07:26:57;6.90;99.90
60293;DHT22;52402;52.670;6.750;2023-12-20T07:29:22;6.90;99.90
60293;DHT22;52402;52.670;6.750;2023-12-20T07:31:48;6.90;99.90
60293;DHT22;52402;52.670;6.750;2023-12-20T07:34:13;6.90;99.90
60293;DHT22;52402;52.670;6.750;2023-12-20T07:36:39;7.00;99.90
60293;DHT22;52402;52.670;6.750;2023-12-20T07:39:04;7.00;99.90
60293;DHT22;52402;52.670;6.750;2023-12-20T07:41:30;7.00;99.90
60293;DHT22;52402;52.670;6.750;2023-12-20T07:43:56;7.00;99.90
60293;DHT22;52402;52.670;6.750;2023-12-20T07:46:22;7.00;99.90
60293;DHT22;52402;52.670;6.750;2023-12-20T07:48:53;7.00;99.90
60293;DHT22;52402;52.670;6.750;2023-12-20T07:51:19;7.00;99.90
60293;DHT22;52402;52.670;6.750;2023-12-20T07:53:46;7.00;99.90
60293;DHT22;52402;52.670;6.750;2023-12-20T07:56:19;7.00;99.90
60293;DHT22;52402;52.670;6.750;2023-12-20T07:58:45;7.00;99.90
60293;DHT22;52402;52.670;6.750;2023-12-20T08:01:12;7.00;99.90
60293;DHT22;52402;52.670;6.750;2023-12-20T08:03:38;7.00;99.90
60293;DHT22;52402;52.670;6.750;2023-12-20T08:06:04;7.00;99.90
60293;DHT22;52402;52.670;6.750;2023-12-20T08:08:30;7.00;99.90
60293;DHT22;52402;52.670;6.750;2023-12-20T08:10:55;7.00;99.90
60293;DHT22;52402;52.670;6.750;2023-12-20T08:13:23;7.00;99.90
60293;DHT22;52402;52.670;6.750;2023-12-20T08:15:51;7.00;99.90
60293;DHT22;52402;52.670;6.750;2023-12-20T08:18:17;7.00;99.90
60293;DHT22;52402;52.670;6.750;2023-12-20T08:20:42;7.00;99.90
60293;DHT22;52402;52.670;6.750;2023-12-20T08:23:08;7.00;99.90
60293;DHT22;52402;52.670;6.750;2023-12-20T08:25:33;7.00;99.90
60293;DHT22;52402;52.670;6.750;2023-12-20T08:28:02;7.00;99.90
60293;DHT22;52402;52.670;6.750;2023-12-20T08:30:29;7.00;99.90
60293;DHT22;52402;52.670;6.750;2023-12-20T08:32:56;7.10;99.90
60293;DHT22;52402;52.670;6.750;2023-12-20T08:35:22;7.10;99.90
60293;DHT22;52402;52.670;6.750;2023-12-20T08:37:47;7.10;99.90
60293;DHT22;52402;52.670;6.750;2023-12-20T08:40:13;7.10;99.90
60293;DHT22;52402;52.670;6.750;2023-12-20T08:42:39;7.20;99.90
60293;DHT22;52402;52.670;6.750;2023-12-20T08:45:05;7.20;99.90
60293;DHT22;52402;52.670;6.750;2023-12-20T08:47:30;7.20;99.90
60293;DHT22;52402;52.670;6.750;2023-12-20T08:49:56;7.20;99.90
60293;DHT22;52402;52.670;6.750;2023-12-20T08:52:23;7.20;99.90
60293;DHT22;52402;52.670;6.750;2023-12-20T08:54:50;7.20;99.90
60293;DHT22;52402;52.670;6.750;2023-12-20T08:57:20;7.30;99.90
60293;DHT22;52402;52.670;6.750;2023-12-20T08:59:47;7.30;99.90
60293;DHT22;52402;52.670;6.750;2023-12-20T09:02:13;7.30;99.90
60293;DHT22;52402;52.670;6.750;2023-12-20T09:04:39;7.30;99.90
60293;DHT22;52402;52.670;6.750;2023-12-20T09:07:05;7.30;99.90
60293;DHT22;52402;52.670;6.750;2023-12-20T09:09:31;7.40;99.90
60293;DHT22;52402;52.670;6.750;2023-12-20T09:11:57;7.40;99.90
60293;DHT22;52402;52.670;6.750;2023-12-20T09:14:23;7.40;99.90
60293;DHT22;52402;52.670;6.750;2023-12-20T09:16:49;7.40;99.90
60293;DHT22;52402;52.670;6.750;2023-12-20T09:19:17;7.50;99.90
60293;DHT22;52402;52.670;6.750;2023-12-20T09:21:43;7.50;99.90
60293;DHT22;52402;52.670;6.750;2023-12-20T09:24:08;7.50;99.90
60293;DHT22;52402;52.670;6.750;2023-12-20T09:26:34;7.50;99.90
60293;DHT22;52402;52.670;6.750;2023-12-20T09:29:00;7.50;99.90
60293;DHT22;52402;52.670;6.750;2023-12-20T09:31:25;7.50;99.90
60293;DHT22;52402;52.670;6.750;2023-12-20T09:33:51;7.60;99.90
60293;DHT22;52402;52.670;6.750;2023-12-20T09:36:19;7.60;99.90
60293;DHT22;52402;52.670;6.750;2023-12-20T09:38:45;7.60;99.90
60293;DHT22;52402;52.670;6.750;2023-12-20T09:41:11;7.60;99.90
60293;DHT22;52402;52.670;6.750;2023-12-20T09:43:37;7.60;99.90
60293;DHT22;52402;52.670;6.750;2023-12-20T09:46:06;7.60;99.90
60293;DHT22;52402;52.670;6.750;2023-12-20T09:48:33;7.60;99.90
60293;DHT22;52402;52.670;6.750;2023-12-20T09:50:59;7.70;99.90
60293;DHT22;52402;52.670;6.750;2023-12-20T09:53:25;7.70;99.90
60293;DHT22;52402;52.670;6.750;2023-12-20T09:55:58;7.80;99.90
60293;DHT22;52402;52.670;6.750;2023-12-20T09:58:25;7.90;99.90
60293;DHT22;52402;52.670;6.750;2023-12-20T10:00:51;7.90;99.90
60293;DHT22;52402;52.670;6.750;2023-12-20T10:03:24;7.90;99.90
60293;DHT22;52402;52.670;6.750;2023-12-20T10:05:52;7.90;99.90
60293;DHT22;52402;52.670;6.750;2023-12-20T10:08:21;7.90;99.90
60293;DHT22;52402;52.670;6.750;2023-12-20T10:10:47;8.00;99.90
60293;DHT22;52402;52.670;6.750;2023-12-20T10:13:13;8.00;99.90
60293;DHT22;52402;52.670;6.750;2023-12-20T10:15:39;8.00;99.90
60293;DHT22;52402;52.670;6.750;2023-12-20T10:18:06;8.00;99.90
60293;DHT22;52402;52.670;6.750;2023-12-20T10:20:32;8.00;99.90
60293;DHT22;52402;52.670;6.750;2023-12-20T10:22:59;7.90;99.90
60293;DHT22;52402;52.670;6.750;2023-12-20T10:25:25;7.80;99.90
60293;DHT22;52402;52.670;6.750;2023-12-20T10:28:09;7.70;99.90
60293;DHT22;52402;52.670;6.750;2023-12-20T10:30:35;7.60;99.90
60293;DHT22;52402;52.670;6.750;2023-12-20T10:33:01;7.50;99.90
60293;DHT22;52402;52.670;6.750;2023-12-20T10:35:27;7.30;99.90
60293;DHT22;52402;52.670;6.750;2023-12-20T10:37:55;6.90;99.90
60293;DHT22;52402;52.670;6.750;2023-12-20T10:40:26;6.80;99.90
60293;DHT22;52402;52.670;6.750;2023-12-20T10:42:53;6.70;99.90
60293;DHT22;52402;52.670;6.750;2023-12-20T10:45:19;6.70;99.90
60293;DHT22;52402;52.670;6.750;2023-12-20T10:47:47;6.60;99.90
60293;DHT22;52402;52.670;6.750;2023-12-20T10:50:14;6.60;99.90
60293;DHT22;52402;52.670;6.750;2023-12-20T10:52:41;6.50;99.90
60293;DHT22;52402;52.670;6.750;2023-12-20T10:55:08;6.60;99.90
60293;DHT22;52402;52.670;6.750;2023-12-20T10:57:36;6.50;99.90
60293;DHT22;52402;52.670;6.750;2023-12-20T11:00:02;6.50;99.90
60293;DHT22;52402;52.670;6.750;2023-12-20T11:02:39;6.50;99.90
60293;DHT22;52402;52.670;6.750;2023-12-20T11:07:50;6.60;99.90
60293;DHT22;52402;52.670;6.750;2023-12-20T11:10:31;6.60;99.90
60293;DHT22;52402;52.670;6.750;2023-12-20T11:13:27;6.60;99.90
60293;DHT22;52402;52.670;6.750;2023-12-20T11:15:54;6.60;99.90
60293;DHT22;52402;52.670;6.750;2023-12-20T11:18:20;6.60;99.90
60293;DHT22;52402;52.670;6.750;2023-12-20T11:20:45;6.60;99.90
60293;DHT22;52402;52.670;6.750;2023-12-20T11:23:11;6.60;99.90
60293;DHT22;52402;52.670;6.750;2023-12-20T11:25:52;6.60;99.90
60293;DHT22;52402;52.670;6.750;2023-12-20T11:28:23;6.60;99.90
60293;DHT22;52402;52.670;6.750;2023-12-20T11:30:52;6.60;99.90
60293;DHT22;52402;52.670;6.750;2023-12-20T11:33:22;6.60;99.90
60293;DHT22;52402;52.670;6.750;2023-12-20T11:35:48;6.70;99.90
60293;DHT22;52402;52.670;6.750;2023-12-20T11:38:14;6.70;99.90
60293;DHT22;52402;52.670;6.750;2023-12-20T11:40:42;6.70;99.90
60293;DHT22;52402;52.670;6.750;2023-12-20T11:43:07;6.70;99.90
60293;DHT22;52402;52.670;6.750;2023-12-20T11:45:33;6.80;99.90
60293;DHT22;52402;52.670;6.750;2023-12-20T11:48:03;6.80;99.90
60293;DHT22;52402;52.670;6.750;2023-12-20T11:50:29;6.80;99.90
60293;DHT22;52402;52.670;6.750;2023-12-20T11:52:56;6.90;99.90
60293;DHT22;52402;52.670;6.750;2023-12-20T11:55:22;6.90;99.90
60293;DHT22;52402;52.670;6.750;2023-12-20T11:57:50;6.90;99.90
60293;DHT22;52402;52.670;6.750;2023-12-20T12:00:16;6.90;99.90
60293;DHT22;52402;52.670;6.750;2023-12-20T12:02:42;6.90;99.90
60293;DHT22;52402;52.670;6.750;2023-12-20T12:05:08;6.90;99.90
60293;DHT22;52402;52.670;6.750;2023-12-20T12:07:35;6.80;99.90
60293;DHT22;52402;52.670;6.750;2023-12-20T12:10:01;6.80;99.90
60293;DHT22;52402;52.670;6.750;2023-12-20T12:12:27;6.80;99.90
60293;DHT22;52402;52.670;6.750;2023-12-20T12:14:54;6.80;99.90
60293;DHT22;52402;52.670;6.750;2023-12-20T12:17:22;6.80;99.90
60293;DHT22;52402;52.670;6.750;2023-12-20T12:19:47;6.80;99.90
60293;DHT22;52402;52.670;6.750;2023-12-20T12:22:14;6.80;99.90
60293;DHT22;52402;52.670;6.750;2023-12-20T12:24:41;6.80;99.90
60293;DHT22;52402;52.670;6.750;2023-12-20T12:27:08;6.90;99.90
60293;DHT22;52402;52.670;6.750;2023-12-20T12:29:40;6.90;99.90
60293;DHT22;52402;52.670;6.750;2023-12-20T12:32:07;6.90;99.90
60293;DHT22;52402;52.670;6.750;2023-12-20T12:34:34;6.90;99.90
60293;DHT22;52402;52.670;6.750;2023-12-20T12:37:00;6.90;99.90
60293;DHT22;52402;52.670;6.750;2023-12-20T12:39:26;6.90;99.90
60293;DHT22;52402;52.670;6.750;2023-12-20T12:41:52;6.90;99.90
60293;DHT22;52402;52.670;6.750;2023-12-20T12:44:19;6.90;99.90
60293;DHT22;52402;52.670;6.750;2023-12-20T12:46:46;6.90;99.90
60293;DHT22;52402;52.670;6.750;2023-12-20T12:49:11;6.90;99.90
60293;DHT22;52402;52.670;6.750;2023-12-20T12:51:37;6.90;99.90
60293;DHT22;52402;52.670;6.750;2023-12-20T12:54:03;6.80;99.90
60293;DHT22;52402;52.670;6.750;2023-12-20T12:56:29;6.80;99.90
60293;DHT22;52402;52.670;6.750;2023-12-20T12:58:55;6.70;99.90
60293;DHT22;52402;52.670;6.750;2023-12-20T13:01:21;6.70;99.90
60293;DHT22;52402;52.670;6.750;2023-12-20T13:03:46;6.70;99.90
60293;DHT22;52402;52.670;6.750;2023-12-20T13:06:12;6.60;99.90
60293;DHT22;52402;52.670;6.750;2023-12-20T13:08:38;6.60;99.90
60293;DHT22;52402;52.670;6.750;2023-12-20T13:11:04;6.60;99.90
60293;DHT22;52402;52.670;6.750;2023-12-20T13:13:30;6.50;99.90
60293;DHT22;52402;52.670;6.750;2023-12-20T13:15:56;6.50;99.90
60293;DHT22;52402;52.670;6.750;2023-12-20T13:18:25;6.50;99.90
60293;DHT22;52402;52.670;6.750;2023-12-20T13:20:51;6.50;99.90
60293;DHT22;52402;52.670;6.750;2023-12-20T13:23:16;6.50;99.90
60293;DHT22;52402;52.670;6.750;2023-12-20T13:25:43;6.40;99.90
60293;DHT22;52402;52.670;6.750;2023-12-20T13:28:11;6.40;99.90
60293;DHT22;52402;52.670;6.750;2023-12-20T13:30:36;6.30;99.90
60293;DHT22;52402;52.670;6.750;2023-12-20T13:33:02;6.30;99.90
60293;DHT22;52402;52.670;6.750;2023-12-20T13:35:28;6.20;99.90
60293;DHT22;52402;52.670;6.750;2023-12-20T13:37:53;6.20;99.90
60293;DHT22;52402;52.670;6.750;2023-12-20T13:40:19;6.10;99.90
60293;DHT22;52402;52.670;6.750;2023-12-20T13:42:44;6.10;99.90
60293;DHT22;52402;52.670;6.750;2023-12-20T13:45:11;6.10;99.90
60293;DHT22;52402;52.670;6.750;2023-12-20T13:47:36;6.10;99.90
60293;DHT22;52402;52.670;6.750;2023-12-20T13:50:03;6.00;99.90
60293;DHT22;52402;52.670;6.750;2023-12-20T13:52:29;6.10;99.90
60293;DHT22;52402;52.670;6.750;2023-12-20T13:54:55;6.10;99.90
60293;DHT22;52402;52.670;6.750;2023-12-20T13:57:20;6.10;99.90
60293;DHT22;52402;52.670;6.750;2023-12-20T13:59:46;6.10;99.90
60293;DHT22;52402;52.670;6.750;2023-12-20T14:02:12;6.10;99.90
60293;DHT22;52402;52.670;6.750;2023-12-20T14:04:37;6.10;99.90
60293;DHT22;52402;52.670;6.750;2023-12-20T14:07:04;6.10;99.90
60293;DHT22;52402;52.670;6.750;2023-12-20T14:09:30;6.10;99.90
60293;DHT22;52402;52.670;6.750;2023-12-20T14:11:56;6.00;99.90
60293;DHT22;52402;52.670;6.750;2023-12-20T14:14:21;6.00;99.90
60293;DHT22;52402;52.670;6.750;2023-12-20T14:16:47;6.00;99.90
60293;DHT22;52402;52.670;6.750;2023-12-20T14:19:12;6.10;99.90
60293;DHT22;52402;52.670;6.750;2023-12-20T14:21:38;6.10;99.90
60293;DHT22;52402;52.670;6.750;2023-12-20T14:24:04;6.10;99.90
60293;DHT22;52402;52.670;6.750;2023-12-20T14:26:30;6.10;99.90
60293;DHT22;52402;52.670;6.750;2023-12-20T14:28:56;6.10;99.90
60293;DHT22;52402;52.670;6.750;2023-12-20T14:31:22;6.10;99.90
60293;DHT22;52402;52.670;6.750;2023-12-20T14:33:50;6.10;99.90
60293;DHT22;52402;52.670;6.750;2023-12-20T14:36:16;6.10;99.90
60293;DHT22;52402;52.670;6.750;2023-12-20T14:38:44;6.10;99.90
60293;DHT22;52402;52.670;6.750;2023-12-20T14:41:09;6.20;99.90
60293;DHT22;52402;52.670;6.750;2023-12-20T14:43:35;6.20;99.90
60293;DHT22;52402;52.670;6.750;2023-12-20T14:46:01;6.20;99.90
60293;DHT22;52402;52.670;6.750;2023-12-20T14:48:27;6.10;99.90
60293;DHT22;52402;52.670;6.750;2023-12-20T14:50:53;6.10;99.90
60293;DHT22;52402;52.670;6.750;2023-12-20T14:53:19;6.10;99.90
60293;DHT22;52402;52.670;6.750;2023-12-20T14:55:46;6.10;99.90
60293;DHT22;52402;52.670;6.750;2023-12-20T14:58:12;6.10;99.90
60293;DHT22;52402;52.670;6.750;2023-12-20T15:00:38;6.10;99.90
60293;DHT22;52402;52.670;6.750;2023-12-20T15:03:04;6.20;99.90
60293;DHT22;52402;52.670;6.750;2023-12-20T15:05:32;6.20;99.90
60293;DHT22;52402;52.670;6.750;2023-12-20T15:07:57;6.30;99.90
60293;DHT22;52402;52.670;6.750;2023-12-20T15:10:23;6.30;99.90
60293;DHT22;52402;52.670;6.750;2023-12-20T15:12:49;6.40;99.90
60293;DHT22;52402;52.670;6.750;2023-12-20T15:15:14;6.40;99.90
60293;DHT22;52402;52.670;6.750;2023-12-20T15:17:40;6.50;99.90
60293;DHT22;52402;52.670;6.750;2023-12-20T15:20:06;6.50;99.90
60293;DHT22;52402;52.670;6.750;2023-12-20T15:22:34;6.50;99.90
60293;DHT22;52402;52.670;6.750;2023-12-20T15:25:00;6.60;99.90
60293;DHT22;52402;52.670;6.750;2023-12-20T15:27:27;6.60;99.90
60293;DHT22;52402;52.670;6.750;2023-12-20T15:29:52;6.60;99.90
60293;DHT22;52402;52.670;6.750;2023-12-20T15:32:18;6.60;99.90
60293;DHT22;52402;52.670;6.750;2023-12-20T15:34:49;6.70;99.90
60293;DHT22;52402;52.670;6.750;2023-12-20T15:37:14;6.80;99.90
60293;DHT22;52402;52.670;6.750;2023-12-20T15:39:41;6.80;99.90
60293;DHT22;52402;52.670;6.750;2023-12-20T15:42:08;6.90;99.90